createdAt,value
2023-01-05T00:00:11.887Z,6.25
2023-01-05T00:01:44.157Z,6.28
2023-01-05T00:03:16.371Z,6.28
2023-01-05T00:04:48.487Z,6.30
2023-01-05T00:06:20.643Z,6.31
2023-01-05T00:07:53.197Z,6.31
2023-01-05T00:09:25.162Z,6.31
2023-01-05T00:11:15.657Z,6.33
2023-01-05T00:13:06.089Z,6.32
2023-01-05T00:14:56.611Z,6.32
2023-01-05T00:16:47.511Z,6.30
2023-01-05T00:18:38.029Z,6.33
2023-01-05T00:20:36.876Z,6.37
2023-01-05T00:22:32.368Z,6.38
2023-01-05T00:25:41.506Z,6.36
2023-01-05T00:27:13.433Z,6.30
2023-01-05T00:28:45.402Z,6.32
2023-01-05T00:30:20.058Z,6.33
2023-01-05T00:31:52.183Z,6.31
2023-01-05T00:33:24.245Z,6.31
2023-01-05T00:34:57.594Z,6.33
2023-01-05T00:36:29.581Z,6.31
2023-01-05T00:38:01.902Z,6.31
2023-01-05T00:39:34.129Z,6.30
2023-01-05T00:41:06.106Z,6.28
2023-01-05T00:42:38.424Z,6.32
2023-01-05T00:44:10.385Z,6.31
2023-01-05T00:45:42.501Z,6.31
2023-01-05T00:47:15.120Z,6.32
2023-01-05T00:48:47.062Z,6.31
2023-01-05T00:50:19.838Z,6.34
2023-01-05T00:51:51.899Z,6.32
2023-01-05T00:53:23.826Z,6.31
2023-01-05T00:54:55.861Z,6.32
2023-01-05T00:56:27.889Z,6.32
2023-01-05T00:57:59.943Z,6.33
2023-01-05T00:59:31.900Z,6.34
2023-01-05T01:01:10.050Z,6.38
2023-01-05T01:02:42.233Z,6.30
2023-01-05T01:04:14.828Z,6.32
2023-01-05T01:05:46.849Z,6.33
2023-01-05T01:07:19.764Z,6.33
2023-01-05T01:08:51.733Z,6.34
2023-01-05T01:10:25.722Z,6.34
2023-01-05T01:11:57.789Z,6.34
2023-01-05T01:13:29.745Z,6.35
2023-01-05T01:15:01.918Z,6.35
2023-01-05T01:16:34.891Z,6.37
2023-01-05T01:18:06.874Z,6.34
2023-01-05T01:19:39.499Z,6.33
2023-01-05T01:21:11.584Z,6.33
2023-01-05T01:24:26.199Z,6.32
2023-01-05T01:25:58.196Z,6.31
2023-01-05T01:27:31.441Z,6.32
2023-01-05T01:29:03.490Z,6.27
2023-01-05T01:30:38.898Z,6.27
2023-01-05T01:32:11.022Z,6.22
2023-01-05T01:33:43.057Z,6.17
2023-01-05T01:35:15.054Z,6.16
2023-01-05T01:36:47.602Z,6.16
2023-01-05T01:38:19.601Z,6.12
2023-01-05T01:39:51.640Z,6.10
2023-01-05T01:41:23.667Z,6.05
2023-01-05T01:42:55.818Z,6.03
2023-01-05T01:44:49.563Z,6.05
2023-01-05T01:46:22.806Z,5.98
2023-01-05T01:47:59.627Z,5.96
2023-01-05T01:49:31.596Z,5.88
2023-01-05T01:51:08.388Z,5.88
2023-01-05T01:52:41.107Z,5.80
2023-01-05T01:54:16.634Z,5.77
2023-01-05T01:55:48.679Z,5.67
2023-01-05T01:57:21.678Z,5.64
2023-01-05T01:58:54.040Z,5.59
2023-01-05T02:00:26.133Z,5.53
2023-01-05T02:02:01.233Z,5.52
2023-01-05T02:03:33.476Z,5.38
2023-01-05T02:05:09.752Z,5.31
2023-01-05T02:06:41.812Z,5.20
2023-01-05T02:08:16.511Z,5.20
2023-01-05T02:09:48.572Z,5.07
2023-01-05T02:11:32.821Z,5.06
2023-01-05T02:13:10.527Z,5.00
2023-01-05T02:14:59.134Z,4.99
2023-01-05T02:16:53.021Z,4.94
2023-01-05T02:18:34.681Z,4.89
2023-01-05T02:20:50.619Z,4.84
2023-01-05T02:22:41.271Z,4.76
2023-01-05T02:24:30.901Z,4.72
2023-01-05T02:26:17.549Z,4.65
2023-01-05T02:28:20.571Z,4.59
2023-01-05T02:29:55.735Z,4.58
2023-01-05T02:31:35.133Z,4.53
2023-01-05T02:33:16.286Z,4.52
2023-01-05T02:35:20.613Z,4.51
2023-01-05T02:37:01.218Z,4.46
2023-01-05T02:38:36.125Z,4.40
2023-01-05T02:40:14.991Z,4.34
2023-01-05T02:41:56.774Z,4.30
2023-01-05T02:43:29.301Z,4.17
2023-01-05T02:45:03.106Z,4.10
2023-01-05T02:46:35.222Z,4.03
2023-01-05T02:48:07.291Z,3.98
2023-01-05T02:49:40.742Z,3.98
2023-01-05T02:53:08.995Z,3.96
2023-01-05T02:54:48.158Z,3.94
2023-01-05T02:56:25.571Z,3.91
2023-01-05T02:58:05.689Z,3.87
2023-01-05T02:59:45.210Z,3.82
2023-01-05T03:01:21.789Z,3.80
2023-01-05T03:02:57.090Z,3.77
2023-01-05T03:04:33.621Z,3.74
2023-01-05T03:06:27.048Z,3.72
2023-01-05T03:08:07.163Z,3.63
2023-01-05T03:09:40.652Z,3.64
2023-01-05T03:11:31.484Z,3.58
2023-01-05T03:13:25.592Z,3.53
2023-01-05T03:15:00.960Z,3.50
2023-01-05T03:16:36.326Z,3.46
2023-01-05T03:18:11.131Z,3.41
2023-01-05T03:19:44.768Z,3.39
2023-01-05T03:21:16.603Z,3.36
2023-01-05T03:23:07.604Z,3.27
2023-01-05T03:24:58.984Z,3.26
2023-01-05T03:26:49.635Z,3.23
2023-01-05T03:28:46.623Z,3.23
2023-01-05T03:30:37.505Z,3.18
2023-01-05T03:32:40.448Z,3.16
2023-01-05T03:34:36.690Z,3.06
2023-01-05T03:36:09.430Z,3.03
2023-01-05T03:37:48.136Z,3.06
2023-01-05T03:39:20.960Z,3.01
2023-01-05T03:40:54.571Z,2.99
2023-01-05T03:42:26.882Z,2.92
2023-01-05T03:43:58.921Z,2.94
2023-01-05T03:45:45.591Z,2.89
2023-01-05T03:47:17.658Z,2.83
2023-01-05T03:48:50.147Z,2.83
2023-01-05T03:50:22.365Z,2.80
2023-01-05T03:51:54.423Z,2.79
2023-01-05T03:53:26.542Z,2.80
2023-01-05T03:54:58.531Z,2.80
2023-01-05T03:56:30.583Z,2.77
2023-01-05T03:58:02.543Z,2.79
2023-01-05T03:59:34.614Z,2.77
2023-01-05T04:01:07.272Z,2.78
2023-01-05T04:02:39.468Z,2.77
2023-01-05T04:04:11.499Z,2.77
2023-01-05T04:05:43.465Z,2.75
2023-01-05T04:07:15.450Z,2.71
2023-01-05T04:08:47.503Z,2.68
2023-01-05T04:10:19.431Z,2.61
2023-01-05T04:11:51.379Z,2.54
2023-01-05T04:13:23.474Z,2.50
2023-01-05T04:14:55.515Z,2.43
2023-01-05T04:16:28.997Z,2.35
2023-01-05T04:18:01.035Z,2.40
2023-01-05T04:19:33.045Z,2.29
2023-01-05T04:21:05.849Z,2.23
2023-01-05T04:22:37.827Z,2.16
2023-01-05T04:24:11.227Z,2.12
2023-01-05T04:25:43.215Z,2.05
2023-01-05T04:27:15.196Z,2.01
2023-01-05T04:28:47.144Z,2.02
2023-01-05T04:30:19.317Z,2.01
2023-01-05T04:31:51.363Z,2.03
2023-01-05T04:33:24.606Z,2.02
2023-01-05T04:34:56.678Z,1.95
2023-01-05T04:36:28.689Z,1.96
2023-01-05T04:38:00.767Z,1.95
2023-01-05T04:39:32.834Z,1.93
2023-01-05T04:41:05.133Z,1.93
2023-01-05T04:42:37.132Z,1.95
2023-01-05T04:44:09.347Z,1.95
2023-01-05T04:45:41.554Z,1.97
2023-01-05T04:47:13.617Z,1.93
2023-01-05T04:48:45.556Z,1.91
2023-01-05T04:50:18.506Z,1.91
2023-01-05T04:51:50.621Z,1.91
2023-01-05T04:53:23.656Z,1.96
2023-01-05T04:54:55.711Z,1.96
2023-01-05T04:56:27.758Z,1.99
2023-01-05T04:57:59.894Z,1.97
2023-01-05T04:59:31.933Z,1.97
2023-01-05T05:01:04.102Z,1.97
2023-01-05T05:02:36.469Z,1.97
2023-01-05T05:04:08.545Z,2.02
2023-01-05T05:05:40.514Z,2.02
2023-01-05T05:07:12.543Z,2.05
2023-01-05T05:08:47.031Z,2.07
2023-01-05T05:10:19.433Z,2.01
2023-01-05T05:11:51.443Z,2.04
2023-01-05T05:13:23.676Z,2.09
2023-01-05T05:14:55.721Z,2.07
2023-01-05T05:16:27.800Z,1.96
2023-01-05T05:18:04.171Z,1.90
2023-01-05T05:19:39.108Z,1.78
2023-01-05T05:21:11.126Z,1.74
2023-01-05T05:22:43.215Z,1.73
2023-01-05T05:24:15.196Z,1.71
2023-01-05T05:25:50.995Z,1.72
2023-01-05T05:27:23.415Z,1.69
2023-01-05T05:28:55.472Z,1.68
2023-01-05T05:30:27.552Z,1.65
2023-01-05T05:31:59.726Z,1.64
2023-01-05T05:33:31.728Z,1.60
2023-01-05T05:36:44.617Z,1.65
2023-01-05T05:38:16.603Z,1.69
2023-01-05T05:39:48.763Z,1.71
2023-01-05T05:41:20.939Z,1.73
2023-01-05T05:42:52.976Z,1.72
2023-01-05T05:44:24.982Z,1.76
2023-01-05T05:45:56.959Z,1.74
2023-01-05T05:47:29.025Z,1.72
2023-01-05T05:49:01.238Z,1.69
2023-01-05T05:50:33.763Z,1.67
2023-01-05T05:52:05.879Z,1.66
2023-01-05T05:53:37.914Z,1.62
2023-01-05T05:55:10.386Z,1.60
2023-01-05T05:56:42.417Z,1.59
2023-01-05T05:58:14.451Z,1.58
2023-01-05T05:59:46.436Z,1.53
2023-01-05T06:01:18.617Z,1.47
2023-01-05T06:02:50.761Z,1.46
2023-01-05T06:04:22.891Z,1.47
2023-01-05T06:05:55.023Z,1.49
2023-01-05T06:07:27.082Z,1.44
2023-01-05T06:08:59.155Z,1.42
2023-01-05T06:10:33.983Z,1.41
2023-01-05T06:12:06.283Z,1.40
2023-01-05T06:13:38.361Z,1.42
2023-01-05T06:15:11.169Z,1.44
2023-01-05T06:16:43.173Z,1.45
2023-01-05T06:18:16.167Z,1.46
2023-01-05T06:19:48.219Z,1.46
2023-01-05T06:21:21.753Z,1.49
2023-01-05T06:22:53.523Z,1.57
2023-01-05T06:24:28.728Z,1.52
2023-01-05T06:26:00.804Z,1.48
2023-01-05T06:27:33.233Z,1.48
2023-01-05T06:29:05.259Z,1.44
2023-01-05T06:30:37.401Z,1.40
2023-01-05T06:32:09.446Z,1.39
2023-01-05T06:33:41.558Z,1.40
2023-01-05T06:35:13.753Z,1.39
2023-01-05T06:36:45.910Z,1.36
2023-01-05T06:38:18.943Z,1.31
2023-01-05T06:39:51.200Z,1.33
2023-01-05T06:41:23.187Z,1.29
2023-01-05T06:42:55.231Z,1.29
2023-01-05T06:44:27.195Z,1.29
2023-01-05T06:45:59.419Z,1.31
2023-01-05T06:47:31.588Z,1.29
2023-01-05T06:49:03.587Z,1.32
2023-01-05T06:50:35.658Z,1.34
2023-01-05T06:52:10.888Z,1.35
2023-01-05T06:53:47.872Z,1.39
2023-01-05T06:55:20.112Z,1.42
2023-01-05T06:56:52.235Z,1.46
2023-01-05T06:58:24.367Z,1.50
2023-01-05T06:59:56.507Z,1.56
2023-01-05T07:01:28.669Z,1.60
2023-01-05T07:03:00.843Z,1.65
2023-01-05T07:04:32.828Z,1.69
2023-01-05T07:06:06.749Z,1.73
2023-01-05T07:07:42.141Z,1.79
2023-01-05T07:09:14.169Z,1.80
2023-01-05T07:10:46.300Z,1.88
2023-01-05T07:12:18.602Z,1.90
2023-01-05T07:13:51.238Z,1.98
2023-01-05T07:15:23.378Z,2.06
2023-01-05T07:16:55.362Z,2.12
2023-01-05T07:18:27.320Z,2.21
2023-01-05T07:19:59.637Z,2.29
2023-01-05T07:21:31.652Z,2.38
2023-01-05T07:23:03.712Z,2.47
2023-01-05T07:24:35.786Z,2.54
2023-01-05T07:26:09.468Z,2.68
2023-01-05T07:27:41.655Z,2.74
2023-01-05T07:29:13.966Z,2.82
2023-01-05T07:30:51.923Z,2.94
2023-01-05T07:32:24.020Z,2.99
2023-01-05T07:33:56.007Z,3.08
2023-01-05T07:35:28.841Z,3.17
2023-01-05T07:37:00.998Z,3.23
2023-01-05T07:38:33.689Z,3.32
2023-01-05T07:40:06.484Z,3.40
2023-01-05T07:41:38.861Z,3.48
2023-01-05T07:43:10.983Z,3.56
2023-01-05T07:44:43.010Z,3.65
2023-01-05T07:46:16.117Z,3.75
2023-01-05T07:47:48.164Z,3.83
2023-01-05T07:49:20.692Z,3.92
2023-01-05T07:50:53.097Z,3.98
2023-01-05T07:52:25.167Z,4.06
2023-01-05T07:53:57.398Z,4.17
2023-01-05T07:55:29.443Z,4.22
2023-01-05T07:57:01.527Z,4.26
2023-01-05T07:58:33.819Z,4.41
2023-01-05T08:00:07.014Z,4.50
2023-01-05T08:01:39.115Z,4.58
2023-01-05T08:03:11.202Z,4.66
2023-01-05T08:04:43.322Z,4.73
2023-01-05T08:06:18.023Z,4.82
2023-01-05T08:07:50.040Z,4.89
2023-01-05T08:09:40.692Z,4.98
2023-01-05T08:11:17.360Z,5.13
2023-01-05T08:13:08.006Z,5.23
2023-01-05T08:14:39.998Z,5.34
2023-01-05T08:16:12.132Z,5.42
2023-01-05T08:17:44.248Z,5.52
2023-01-05T08:19:18.738Z,5.60
2023-01-05T08:20:56.036Z,5.71
2023-01-05T08:22:28.116Z,5.74
2023-01-05T08:24:00.238Z,5.81
2023-01-05T08:25:32.276Z,5.92
2023-01-05T08:27:04.545Z,6.00
2023-01-05T08:28:37.183Z,6.13
2023-01-05T08:30:09.993Z,6.23
2023-01-05T08:31:44.595Z,6.32
2023-01-05T08:33:16.897Z,6.42
2023-01-05T08:34:55.056Z,6.59
2023-01-05T08:36:28.187Z,6.71
2023-01-05T08:38:00.277Z,6.84
2023-01-05T08:39:33.466Z,7.00
2023-01-05T08:41:05.778Z,7.11
2023-01-05T08:42:37.868Z,7.24
2023-01-05T08:44:14.484Z,7.42
2023-01-05T08:45:53.191Z,7.57
2023-01-05T08:47:28.432Z,7.69
2023-01-05T08:49:06.029Z,7.86
2023-01-05T08:50:38.803Z,8.01
2023-01-05T08:52:10.793Z,8.12
2023-01-05T08:53:42.953Z,8.25
2023-01-05T08:55:15.187Z,8.38
2023-01-05T08:56:50.793Z,8.51
2023-01-05T08:58:23.113Z,8.64
2023-01-05T08:59:55.247Z,8.76
2023-01-05T09:01:28.036Z,8.88
2023-01-05T09:03:00.318Z,9.02
2023-01-05T09:04:32.554Z,9.15
2023-01-05T09:06:06.184Z,9.23
2023-01-05T09:07:38.203Z,9.30
2023-01-05T09:09:10.710Z,9.36
2023-01-05T09:10:42.973Z,9.40
2023-01-05T09:12:15.139Z,9.53
2023-01-05T09:13:52.826Z,9.64
2023-01-05T09:15:24.913Z,9.73
2023-01-05T09:17:08.088Z,9.85
2023-01-05T09:18:41.716Z,9.95
2023-01-05T09:20:13.879Z,9.99
2023-01-05T09:21:45.951Z,10.10
2023-01-05T09:23:17.933Z,10.15
2023-01-05T09:24:49.913Z,10.23
2023-01-05T09:26:21.996Z,10.28
2023-01-05T09:27:58.449Z,10.35
2023-01-05T09:29:30.537Z,10.37
2023-01-05T09:31:13.979Z,10.49
2023-01-05T09:32:46.204Z,10.52
2023-01-05T09:34:19.415Z,10.60
2023-01-05T09:35:57.916Z,10.71
2023-01-05T09:37:29.964Z,10.83
2023-01-05T09:39:01.980Z,11.01
2023-01-05T09:40:40.732Z,11.22
2023-01-05T09:42:17.573Z,11.36
2023-01-05T09:44:12.055Z,11.51
2023-01-05T09:45:43.974Z,11.69
2023-01-05T09:47:21.266Z,11.81
2023-01-05T09:48:56.023Z,11.97
2023-01-05T09:50:32.686Z,12.09
2023-01-05T09:52:11.029Z,12.22
2023-01-05T09:53:43.099Z,12.24
2023-01-05T09:55:20.174Z,12.33
2023-01-05T09:57:09.136Z,12.37
2023-01-05T09:58:44.359Z,12.44
2023-01-05T10:00:17.271Z,12.49
2023-01-05T10:01:51.564Z,12.57
2023-01-05T10:04:01.721Z,12.62
2023-01-05T10:05:17.321Z,12.70
2023-01-05T10:06:56.710Z,12.76
2023-01-05T10:08:38.671Z,12.83
2023-01-05T10:10:36.910Z,12.92
2023-01-05T10:12:27.658Z,12.88
2023-01-05T10:14:15.349Z,12.96
2023-01-05T10:15:51.495Z,12.93
2023-01-05T10:17:41.321Z,12.98
2023-01-05T10:19:16.466Z,12.95
2023-01-05T10:21:09.595Z,12.98
2023-01-05T10:22:50.760Z,12.99
2023-01-05T10:24:47.103Z,13.00
2023-01-05T10:26:32.715Z,13.04
2023-01-05T10:28:35.734Z,13.03
2023-01-05T10:30:24.137Z,13.13
2023-01-05T10:32:03.425Z,13.24
2023-01-05T10:33:57.837Z,13.32
2023-01-05T10:36:00.598Z,13.41
2023-01-05T10:37:33.936Z,13.45
2023-01-05T10:39:14.500Z,13.52
2023-01-05T10:41:14.795Z,13.55
2023-01-05T10:45:07.091Z,13.70
2023-01-05T10:46:45.958Z,13.74
2023-01-05T10:48:30.465Z,13.78
2023-01-05T10:50:04.299Z,13.78
2023-01-05T10:51:37.158Z,13.85
2023-01-05T10:53:19.142Z,13.90
2023-01-05T10:55:01.265Z,13.99
2023-01-05T10:56:33.566Z,13.92
2023-01-05T10:58:05.576Z,13.93
2023-01-05T10:59:57.363Z,14.05
2023-01-05T11:01:31.140Z,14.08
2023-01-05T11:03:03.965Z,14.10
2023-01-05T11:04:36.213Z,14.17
2023-01-05T11:06:09.930Z,14.24
2023-01-05T11:07:53.579Z,14.35
2023-01-05T11:09:26.934Z,14.29
2023-01-05T11:11:05.776Z,14.36
2023-01-05T11:12:38.037Z,14.25
2023-01-05T11:14:16.910Z,14.32
2023-01-05T11:15:54.341Z,14.34
2023-01-05T11:17:27.696Z,14.31
2023-01-05T11:19:03.044Z,14.38
2023-01-05T11:20:35.469Z,14.33
2023-01-05T11:22:30.178Z,14.41
2023-01-05T11:24:04.125Z,14.47
2023-01-05T11:25:36.334Z,14.49
2023-01-05T11:27:20.346Z,14.60
2023-01-05T11:29:01.536Z,14.66
2023-01-05T11:30:33.878Z,14.64
2023-01-05T11:32:10.147Z,14.70
2023-01-05T11:33:42.142Z,14.73
2023-01-05T11:35:33.208Z,14.88
2023-01-05T11:37:10.472Z,14.88
2023-01-05T11:38:42.552Z,14.87
2023-01-05T11:40:17.451Z,14.89
2023-01-05T11:41:50.488Z,14.85
2023-01-05T11:43:25.149Z,14.85
2023-01-05T11:45:28.994Z,14.85
2023-01-05T11:47:01.137Z,14.76
2023-01-05T11:48:35.116Z,14.78
2023-01-05T11:50:10.205Z,14.70
2023-01-05T11:51:42.330Z,14.69
2023-01-05T11:53:40.969Z,14.68
2023-01-05T11:55:24.491Z,14.66
2023-01-05T11:57:29.324Z,14.64
2023-01-05T11:59:01.357Z,14.61
2023-01-05T12:01:01.887Z,14.54
2023-01-05T12:02:50.404Z,14.48
2023-01-05T12:04:44.582Z,14.41
2023-01-05T12:06:53.939Z,14.39
2023-01-05T12:09:11.263Z,14.34
2023-01-05T12:10:57.376Z,14.26
2023-01-05T12:14:18.179Z,14.24
2023-01-05T12:16:11.543Z,14.21
2023-01-05T12:17:52.680Z,14.14
2023-01-05T12:19:39.960Z,14.09
2023-01-05T12:21:24.678Z,14.09
2023-01-05T12:23:18.360Z,14.16
2023-01-05T12:25:21.246Z,14.20
2023-01-05T12:27:17.663Z,14.28
2023-01-05T12:35:38.331Z,14.64
2023-01-05T12:37:44.058Z,14.80
2023-01-05T12:39:39.602Z,14.88
2023-01-05T12:41:49.379Z,14.96
2023-01-05T12:43:51.820Z,15.06
2023-01-05T12:45:48.768Z,15.13
2023-01-05T12:47:30.338Z,15.20
2023-01-05T12:49:08.140Z,15.28
2023-01-05T12:50:58.405Z,15.27
2023-01-05T12:52:35.396Z,15.35
2023-01-05T12:54:50.870Z,15.42
2023-01-05T12:56:41.496Z,15.43
2023-01-05T12:58:35.807Z,15.50
2023-01-05T13:00:14.654Z,15.56
2023-01-05T13:02:02.518Z,15.58
2023-01-05T13:03:42.677Z,15.56
2023-01-05T13:05:19.823Z,15.59
2023-01-05T13:06:53.611Z,15.61
2023-01-05T13:08:52.651Z,15.71
2023-01-05T13:10:31.210Z,15.71
2023-01-05T13:12:07.519Z,15.67
2023-01-05T13:13:46.770Z,15.74
2023-01-05T13:15:44.349Z,15.77
2023-01-05T13:17:21.825Z,15.81
2023-01-05T13:19:14.487Z,15.81
2023-01-05T13:20:54.231Z,15.80
2023-01-05T13:22:32.126Z,15.77
2023-01-05T13:24:09.573Z,15.75
2023-01-05T13:26:03.883Z,15.75
2023-01-05T13:27:35.759Z,15.72
2023-01-05T13:29:49.080Z,15.65
2023-01-05T13:31:33.561Z,15.68
2023-01-05T13:33:26.684Z,15.67
2023-01-05T13:35:11.198Z,15.62
2023-01-05T13:37:25.949Z,15.64
2023-01-05T13:39:11.627Z,15.61
2023-01-05T13:41:13.629Z,15.57
2023-01-05T13:45:01.426Z,15.47
2023-01-05T13:46:42.592Z,15.47
2023-01-05T13:49:03.333Z,15.46
2023-01-05T13:51:00.356Z,15.45
2023-01-05T13:53:03.816Z,15.44
2023-01-05T13:54:54.506Z,15.44
2023-01-05T13:56:32.552Z,15.40
2023-01-05T13:58:06.149Z,15.44
2023-01-05T13:59:46.747Z,15.37
2023-01-05T14:01:44.960Z,15.40
2023-01-05T14:03:33.314Z,15.37
2023-01-05T14:05:25.602Z,15.38
2023-01-05T14:07:07.571Z,15.33
2023-01-05T14:08:40.603Z,15.26
2023-01-05T14:10:27.619Z,15.26
2023-01-05T14:12:08.851Z,15.20
2023-01-05T14:14:11.712Z,15.14
2023-01-05T14:15:44.096Z,15.07
2023-01-05T14:17:54.803Z,15.07
2023-01-05T14:19:33.046Z,15.00
2023-01-05T14:21:11.515Z,14.93
2023-01-05T14:22:44.313Z,14.84
2023-01-05T14:24:27.717Z,14.82
2023-01-05T14:26:04.419Z,14.73
2023-01-05T14:28:16.744Z,14.66
2023-01-05T14:29:55.048Z,14.60
2023-01-05T14:31:36.831Z,14.52
2023-01-05T14:33:09.791Z,14.43
2023-01-05T14:36:47.918Z,14.33
2023-01-05T14:38:24.730Z,14.27
2023-01-05T14:40:04.137Z,14.16
2023-01-05T14:41:41.384Z,14.08
2023-01-05T14:43:28.975Z,14.04
2023-01-05T14:45:06.895Z,13.96
2023-01-05T14:46:52.506Z,13.89
2023-01-05T14:48:33.540Z,13.82
2023-01-05T14:50:06.821Z,13.71
2023-01-05T14:51:40.065Z,13.64
2023-01-05T14:53:21.216Z,13.57
2023-01-05T14:55:05.626Z,13.47
2023-01-05T14:56:39.255Z,13.33
2023-01-05T14:58:14.879Z,13.28
2023-01-05T14:59:47.559Z,13.16
2023-01-05T15:01:29.975Z,13.06
2023-01-05T15:05:16.934Z,12.81
2023-01-05T15:07:04.593Z,12.66
2023-01-05T15:09:10.573Z,12.44
2023-01-05T15:12:32.674Z,12.10
2023-01-05T15:14:38.124Z,11.95
2023-01-05T15:16:18.165Z,11.79
2023-01-05T15:18:37.139Z,11.58
2023-01-05T15:20:44.393Z,11.43
2023-01-05T15:22:37.563Z,11.32
2023-01-05T15:24:58.804Z,11.21
2023-01-05T15:26:45.600Z,11.09
2023-01-05T15:28:51.397Z,11.00
2023-01-05T15:31:00.698Z,10.89
2023-01-05T15:32:40.082Z,10.77
2023-01-05T15:34:25.371Z,10.67
2023-01-05T15:36:05.002Z,10.54
2023-01-05T15:37:39.348Z,10.39
2023-01-05T15:41:10.493Z,10.15
2023-01-05T15:42:44.473Z,10.01
2023-01-05T15:44:19.641Z,9.92
2023-01-05T15:45:53.732Z,9.82
2023-01-05T15:47:28.423Z,9.73
2023-01-05T15:49:00.479Z,9.62
2023-01-05T15:50:50.387Z,9.57
2023-01-05T15:52:37.357Z,9.50
2023-01-05T15:54:21.406Z,9.45
2023-01-05T15:55:53.785Z,9.34
2023-01-05T15:57:26.087Z,9.26
2023-01-05T15:58:58.827Z,9.19
2023-01-05T16:00:35.628Z,9.13
2023-01-05T16:02:28.650Z,9.00
2023-01-05T16:04:09.819Z,8.96
2023-01-05T16:05:42.245Z,8.88
2023-01-05T16:07:17.447Z,8.83
2023-01-05T16:10:42.099Z,8.74
2023-01-05T16:12:24.395Z,8.61
2023-01-05T16:14:03.277Z,8.45
2023-01-05T16:15:36.347Z,8.36
2023-01-05T16:17:15.577Z,8.32
2023-01-05T16:18:52.199Z,8.26
2023-01-05T16:20:25.493Z,8.21
2023-01-05T16:22:06.676Z,8.09
2023-01-05T16:23:45.413Z,7.97
2023-01-05T16:25:25.920Z,7.94
2023-01-05T16:26:58.243Z,7.89
2023-01-05T16:28:30.343Z,7.86
2023-01-05T16:30:27.158Z,7.85
2023-01-05T16:31:59.701Z,7.72
2023-01-05T16:33:38.812Z,7.68
2023-01-05T16:35:35.760Z,7.68
2023-01-05T16:37:17.194Z,7.60
2023-01-05T16:40:21.397Z,7.55
2023-01-05T16:42:25.738Z,7.55
2023-01-05T16:44:01.846Z,7.53
2023-01-05T16:45:34.060Z,7.43
2023-01-05T16:47:10.438Z,7.37
2023-01-05T16:48:42.427Z,7.34
2023-01-05T16:50:20.445Z,7.37
2023-01-05T16:51:52.955Z,7.32
2023-01-05T16:53:25.438Z,7.30
2023-01-05T16:55:28.028Z,7.29
2023-01-05T16:57:02.537Z,7.19
2023-01-05T16:58:36.221Z,7.11
2023-01-05T17:00:26.341Z,7.06
2023-01-05T17:01:58.625Z,6.86
2023-01-05T17:03:32.550Z,6.72
2023-01-05T17:05:06.443Z,6.57
2023-01-05T17:06:39.000Z,6.49
2023-01-05T17:08:22.684Z,6.47
2023-01-05T17:09:54.991Z,6.40
2023-01-05T17:11:37.842Z,6.46
2023-01-05T17:13:20.987Z,6.51
2023-01-05T17:14:53.157Z,6.49
2023-01-05T17:16:25.528Z,6.48
2023-01-05T17:17:57.941Z,6.52
2023-01-05T17:19:36.891Z,6.55
2023-01-05T17:21:09.352Z,6.52
2023-01-05T17:22:41.412Z,6.51
2023-01-05T17:24:13.584Z,6.45
2023-01-05T17:25:45.646Z,6.42
2023-01-05T17:27:17.666Z,6.32
2023-01-05T17:28:50.164Z,6.26
2023-01-05T17:30:23.115Z,6.21
2023-01-05T17:31:55.947Z,6.10
2023-01-05T17:33:27.978Z,6.05
2023-01-05T17:35:00.031Z,6.08
2023-01-05T17:36:34.692Z,6.09
2023-01-05T17:38:06.791Z,6.05
2023-01-05T17:39:41.414Z,6.07
2023-01-05T17:41:16.027Z,6.05
2023-01-05T17:42:49.302Z,6.02
2023-01-05T17:44:21.380Z,6.05
2023-01-05T17:45:53.437Z,6.05
2023-01-05T17:47:25.496Z,6.00
2023-01-05T17:48:59.277Z,5.92
2023-01-05T17:52:24.589Z,5.92
2023-01-05T17:53:57.764Z,5.94
2023-01-05T17:55:30.278Z,5.90
2023-01-05T17:57:02.310Z,5.87
2023-01-05T17:58:34.379Z,5.78
2023-01-05T18:00:08.918Z,5.77
2023-01-05T18:01:40.943Z,5.64
2023-01-05T18:03:17.375Z,5.67
2023-01-05T18:04:50.235Z,5.64
2023-01-05T18:06:23.418Z,5.64
2023-01-05T18:07:55.519Z,5.64
2023-01-05T18:09:27.591Z,5.64
2023-01-05T18:11:02.684Z,5.67
2023-01-05T18:12:35.057Z,5.66
2023-01-05T18:15:44.365Z,5.72
2023-01-05T18:17:16.450Z,5.66
2023-01-05T18:18:48.488Z,5.68
2023-01-05T18:20:21.470Z,5.65
2023-01-05T18:21:53.726Z,5.65
2023-01-05T18:23:25.832Z,5.66
2023-01-05T18:24:57.892Z,5.70
2023-01-05T18:26:30.083Z,5.68
2023-01-05T18:28:02.403Z,5.71
2023-01-05T18:29:34.969Z,5.68
2023-01-05T18:31:11.808Z,5.75
2023-01-05T18:32:44.104Z,5.71
2023-01-05T18:34:16.178Z,5.68
2023-01-05T18:35:50.455Z,5.66
2023-01-05T18:38:55.546Z,5.66
2023-01-05T18:40:28.777Z,5.71
2023-01-05T18:42:01.150Z,5.65
2023-01-05T18:43:33.985Z,5.71
2023-01-05T18:45:19.125Z,5.73
2023-01-05T18:46:52.133Z,5.74
2023-01-05T18:48:24.516Z,5.76
2023-01-05T18:49:58.415Z,5.72
2023-01-05T18:51:30.628Z,5.72
2023-01-05T18:53:02.754Z,5.68
2023-01-05T18:54:34.927Z,5.54
2023-01-05T18:56:11.419Z,5.48
2023-01-05T18:57:43.366Z,5.34
2023-01-05T18:59:15.582Z,5.25
2023-01-05T19:00:47.675Z,5.18
2023-01-05T19:02:19.803Z,5.20
2023-01-05T19:03:53.178Z,5.20
2023-01-05T19:05:25.293Z,5.13
2023-01-05T19:06:57.363Z,5.17
2023-01-05T19:08:29.413Z,5.20
2023-01-05T19:10:01.434Z,5.22
2023-01-05T19:11:33.787Z,5.26
2023-01-05T19:13:06.542Z,5.29
2023-01-05T19:14:38.621Z,5.33
2023-01-05T19:16:10.815Z,5.35
2023-01-05T19:17:42.941Z,5.34
2023-01-05T19:19:16.106Z,5.34
2023-01-05T19:20:56.285Z,5.32
2023-01-05T19:22:28.432Z,5.18
2023-01-05T19:24:01.767Z,5.20
2023-01-05T19:25:34.018Z,5.21
2023-01-05T19:27:06.018Z,5.16
2023-01-05T19:28:40.415Z,5.07
2023-01-05T19:30:14.730Z,5.04
2023-01-05T19:31:48.351Z,5.07
2023-01-05T19:33:20.441Z,5.06
2023-01-05T19:34:52.461Z,5.05
2023-01-05T19:36:24.998Z,5.11
2023-01-05T19:37:57.451Z,5.10
2023-01-05T19:39:29.556Z,5.11
2023-01-05T19:41:13.156Z,5.18
2023-01-05T19:42:45.226Z,5.15
2023-01-05T19:44:19.208Z,5.15
2023-01-05T19:45:51.221Z,5.16
2023-01-05T19:47:23.258Z,5.17
2023-01-05T19:48:56.263Z,5.17
2023-01-05T19:50:28.371Z,5.17
2023-01-05T19:52:00.458Z,5.15
2023-01-05T19:53:33.810Z,5.13
2023-01-05T19:55:06.793Z,5.09
2023-01-05T19:56:39.190Z,5.05
2023-01-05T19:58:11.175Z,5.06
2023-01-05T19:59:43.543Z,5.02
2023-01-05T20:01:16.481Z,5.04
2023-01-05T20:02:48.634Z,5.01
2023-01-05T20:04:20.856Z,4.99
2023-01-05T20:05:52.905Z,4.96
2023-01-05T20:07:24.902Z,4.86
2023-01-05T20:09:01.278Z,4.86
2023-01-05T20:10:33.323Z,4.77
2023-01-05T20:12:14.484Z,4.71
2023-01-05T20:13:52.241Z,4.75
2023-01-05T20:15:24.369Z,4.69
2023-01-05T20:17:04.469Z,4.73
2023-01-05T20:18:37.846Z,4.68
2023-01-05T20:20:12.469Z,4.67
2023-01-05T20:21:44.716Z,4.68
2023-01-05T20:23:16.804Z,4.70
2023-01-05T20:24:48.822Z,4.71
2023-01-05T20:26:22.938Z,4.76
2023-01-05T20:27:54.944Z,4.76
2023-01-05T20:29:28.100Z,4.80
2023-01-05T20:31:00.524Z,4.82
2023-01-05T20:32:35.052Z,4.83
2023-01-05T20:34:12.997Z,4.87
2023-01-05T20:35:45.121Z,4.80
2023-01-05T20:37:17.169Z,4.78
2023-01-05T20:38:49.594Z,4.79
2023-01-05T20:40:21.720Z,4.80
2023-01-05T20:41:54.442Z,4.78
2023-01-05T20:43:26.493Z,4.74
2023-01-05T20:44:58.556Z,4.73
2023-01-05T20:46:36.535Z,4.75
2023-01-05T20:48:08.633Z,4.74
2023-01-05T20:49:41.328Z,4.74
2023-01-05T20:51:14.299Z,4.74
2023-01-05T20:52:46.444Z,4.72
2023-01-05T20:54:18.700Z,4.74
2023-01-05T20:55:52.086Z,4.73
2023-01-05T20:57:24.136Z,4.74
2023-01-05T20:58:56.609Z,4.78
2023-01-05T21:00:28.648Z,4.80
2023-01-05T21:02:01.777Z,4.84
2023-01-05T21:03:34.831Z,4.80
2023-01-05T21:05:07.498Z,4.87
2023-01-05T21:06:39.725Z,4.86
2023-01-05T21:08:11.810Z,4.89
2023-01-05T21:09:43.997Z,4.91
2023-01-05T21:11:18.018Z,4.93
2023-01-05T21:12:50.154Z,4.92
2023-01-05T21:14:22.185Z,4.91
2023-01-05T21:16:05.826Z,4.93
2023-01-05T21:17:37.914Z,4.87
2023-01-05T21:19:12.504Z,4.94
2023-01-05T21:20:44.570Z,4.92
2023-01-05T21:22:16.545Z,4.98
2023-01-05T21:23:49.855Z,5.01
2023-01-05T21:25:23.216Z,5.01
2023-01-05T21:26:55.417Z,4.99
2023-01-05T21:28:29.197Z,4.97
2023-01-05T21:30:02.024Z,4.92
2023-01-05T21:31:34.897Z,4.90
2023-01-05T21:33:07.043Z,4.82
2023-01-05T21:34:39.023Z,4.94
2023-01-05T21:36:19.813Z,5.13
2023-01-05T21:37:51.873Z,5.09
2023-01-05T21:39:26.210Z,5.14
2023-01-05T21:41:05.609Z,5.08
2023-01-05T21:42:40.669Z,4.99
2023-01-05T21:44:14.294Z,5.00
2023-01-05T21:45:46.278Z,5.12
2023-01-05T21:47:38.416Z,5.17
2023-01-05T21:49:11.386Z,5.20
2023-01-05T21:51:01.858Z,5.19
2023-01-05T21:52:52.882Z,5.33
2023-01-05T21:54:43.553Z,5.46
2023-01-05T21:56:27.938Z,5.60
2023-01-05T21:58:00.172Z,5.68
2023-01-05T21:59:32.471Z,5.81